sensor_id;sensor_type;location;lat;lon;timestamp;pressure;altitude;pressure_sealevel;temperature;humidity
35676;BME280;21790;42.668;23.298;2023-12-29T00:02:21;95372.41;;;9.46;46.58
35676;BME280;21790;42.668;23.298;2023-12-29T00:04:47;95368.75;;;9.37;46.96
35676;BME280;21790;42.668;23.298;2023-12-29T00:07:13;95369.44;;;9.53;46.72
35676;BME280;21790;42.668;23.298;2023-12-29T00:09:42;95364.94;;;9.59;46.58
35676;BME280;21790;42.668;23.298;2023-12-29T00:12:09;95365.53;;;9.38;46.42
35676;BME280;21790;42.668;23.298;2023-12-29T00:14:39;95358.25;;;9.44;46.52
35676;BME280;21790;42.668;23.298;2023-12-29T00:17:08;95362.31;;;9.27;47.11
35676;BME280;21790;42.668;23.298;2023-12-29T00:19:34;95353.53;;;9.45;46.69
35676;BME280;21790;42.668;23.298;2023-12-29T00:21:59;95364.47;;;9.61;46.18
35676;BME280;21790;42.668;23.298;2023-12-29T00:24:29;95368.28;;;9.80;46.02
35676;BME280;21790;42.668;23.298;2023-12-29T00:26:58;95370.34;;;9.63;46.15
35676;BME280;21790;42.668;23.298;2023-12-29T00:29:24;95362.56;;;9.33;46.60
35676;BME280;21790;42.668;23.298;2023-12-29T00:31:51;95361.44;;;9.30;47.22
35676;BME280;21790;42.668;23.298;2023-12-29T00:34:17;95349.03;;;9.22;47.35
35676;BME280;21790;42.668;23.298;2023-12-29T00:36:43;95361.09;;;9.28;47.33
35676;BME280;21790;42.668;23.298;2023-12-29T00:39:09;95360.63;;;9.71;46.25
35676;BME280;21790;42.668;23.298;2023-12-29T00:41:35;95358.06;;;9.51;46.13
35676;BME280;21790;42.668;23.298;2023-12-29T00:44:01;95362.19;;;9.59;45.73
35676;BME280;21790;42.668;23.298;2023-12-29T00:46:26;95353.81;;;9.76;45.62
35676;BME280;21790;42.668;23.298;2023-12-29T00:48:52;95346.97;;;9.80;45.59
35676;BME280;21790;42.668;23.298;2023-12-29T00:51:19;95346.63;;;9.91;45.00
35676;BME280;21790;42.668;23.298;2023-12-29T00:53:45;95340.56;;;9.96;45.12
35676;BME280;21790;42.668;23.298;2023-12-29T00:56:12;95347.41;;;9.91;45.34
35676;BME280;21790;42.668;23.298;2023-12-29T00:58:38;95346.59;;;9.65;45.23
35676;BME280;21790;42.668;23.298;2023-12-29T01:01:04;95343.84;;;9.53;45.53
35676;BME280;21790;42.668;23.298;2023-12-29T01:03:30;95341.72;;;9.44;46.22
35676;BME280;21790;42.668;23.298;2023-12-29T01:05:59;95337.75;;;9.45;46.72
35676;BME280;21790;42.668;23.298;2023-12-29T01:08:28;95342.78;;;9.34;46.64
35676;BME280;21790;42.668;23.298;2023-12-29T01:10:54;95338.84;;;9.06;47.09
35676;BME280;21790;42.668;23.298;2023-12-29T01:13:21;95342.84;;;9.18;47.42
35676;BME280;21790;42.668;23.298;2023-12-29T01:15:48;95336.69;;;9.14;47.36
35676;BME280;21790;42.668;23.298;2023-12-29T01:18:16;95349.28;;;9.28;46.92
35676;BME280;21790;42.668;23.298;2023-12-29T01:20:43;95351.78;;;9.22;47.17
35676;BME280;21790;42.668;23.298;2023-12-29T01:23:11;95350.16;;;9.24;47.34
35676;BME280;21790;42.668;23.298;2023-12-29T01:25:37;95344.75;;;9.21;46.81
35676;BME280;21790;42.668;23.298;2023-12-29T01:28:05;95346.50;;;9.15;47.51
35676;BME280;21790;42.668;23.298;2023-12-29T01:30:32;95353.09;;;9.05;47.11
35676;BME280;21790;42.668;23.298;2023-12-29T01:33:00;95352.25;;;9.20;47.05
35676;BME280;21790;42.668;23.298;2023-12-29T01:35:28;95349.44;;;9.08;47.27
35676;BME280;21790;42.668;23.298;2023-12-29T01:37:56;95350.13;;;9.12;47.15
35676;BME280;21790;42.668;23.298;2023-12-29T01:40:24;95361.00;;;9.03;48.12
35676;BME280;21790;42.668;23.298;2023-12-29T01:42:52;95356.63;;;9.05;47.93
35676;BME280;21790;42.668;23.298;2023-12-29T01:45:24;95357.19;;;9.13;47.52
35676;BME280;21790;42.668;23.298;2023-12-29T01:47:58;95361.31;;;9.21;47.81
35676;BME280;21790;42.668;23.298;2023-12-29T01:50:25;95352.63;;;9.06;48.41
35676;BME280;21790;42.668;23.298;2023-12-29T01:52:54;95352.63;;;9.06;48.88
35676;BME280;21790;42.668;23.298;2023-12-29T01:55:24;95349.56;;;9.17;48.16
35676;BME280;21790;42.668;23.298;2023-12-29T01:57:52;95350.50;;;8.98;48.25
35676;BME280;21790;42.668;23.298;2023-12-29T02:00:22;95337.66;;;9.07;47.85
35676;BME280;21790;42.668;23.298;2023-12-29T02:02:49;95336.09;;;9.06;48.33
35676;BME280;21790;42.668;23.298;2023-12-29T02:05:15;95329.56;;;9.00;48.60
35676;BME280;21790;42.668;23.298;2023-12-29T02:07:42;95324.09;;;8.84;48.93
35676;BME280;21790;42.668;23.298;2023-12-29T02:10:09;95322.78;;;9.17;48.20
35676;BME280;21790;42.668;23.298;2023-12-29T02:12:41;95315.63;;;9.20;47.46
35676;BME280;21790;42.668;23.298;2023-12-29T02:15:09;95318.84;;;9.31;47.73
35676;BME280;21790;42.668;23.298;2023-12-29T02:17:51;95303.97;;;9.41;47.50
35676;BME280;21790;42.668;23.298;2023-12-29T02:20:19;95315.56;;;9.36;46.75
35676;BME280;21790;42.668;23.298;2023-12-29T02:22:46;95314.38;;;9.62;46.07
35676;BME280;21790;42.668;23.298;2023-12-29T02:25:12;95311.81;;;9.55;46.13
35676;BME280;21790;42.668;23.298;2023-12-29T02:27:52;95306.22;;;9.59;46.42
35676;BME280;21790;42.668;23.298;2023-12-29T02:32:59;95307.75;;;9.73;45.58
35676;BME280;21790;42.668;23.298;2023-12-29T02:35:32;95295.59;;;9.83;45.57
35676;BME280;21790;42.668;23.298;2023-12-29T02:38:00;95288.56;;;9.82;45.42
35676;BME280;21790;42.668;23.298;2023-12-29T02:40:26;95292.41;;;9.46;46.21
35676;BME280;21790;42.668;23.298;2023-12-29T02:42:52;95286.88;;;9.46;46.34
35676;BME280;21790;42.668;23.298;2023-12-29T02:45:20;95281.66;;;9.23;46.81
35676;BME280;21790;42.668;23.298;2023-12-29T02:47:46;95286.03;;;9.08;47.09
35676;BME280;21790;42.668;23.298;2023-12-29T02:50:11;95275.97;;;8.89;47.15
35676;BME280;21790;42.668;23.298;2023-12-29T02:52:38;95278.13;;;8.81;47.56
35676;BME280;21790;42.668;23.298;2023-12-29T02:55:04;95276.75;;;8.73;47.75
35676;BME280;21790;42.668;23.298;2023-12-29T02:57:29;95274.72;;;8.90;47.54
35676;BME280;21790;42.668;23.298;2023-12-29T02:59:56;95273.34;;;8.98;47.05
35676;BME280;21790;42.668;23.298;2023-12-29T03:02:22;95272.69;;;9.06;46.93
35676;BME280;21790;42.668;23.298;2023-12-29T03:04:48;95265.53;;;9.09;46.65
35676;BME280;21790;42.668;23.298;2023-12-29T03:07:17;95260.94;;;8.90;47.60
35676;BME280;21790;42.668;23.298;2023-12-29T03:09:44;95261.06;;;8.86;47.54
35676;BME280;21790;42.668;23.298;2023-12-29T03:12:11;95255.59;;;8.99;47.25
35676;BME280;21790;42.668;23.298;2023-12-29T03:14:38;95260.56;;;9.04;47.68
35676;BME280;21790;42.668;23.298;2023-12-29T03:17:06;95248.47;;;8.72;48.63
35676;BME280;21790;42.668;23.298;2023-12-29T03:19:36;95256.50;;;8.67;48.62
35676;BME280;21790;42.668;23.298;2023-12-29T03:22:02;95252.78;;;8.86;48.16
35676;BME280;21790;42.668;23.298;2023-12-29T03:24:29;95250.88;;;8.70;48.33
35676;BME280;21790;42.668;23.298;2023-12-29T03:26:54;95260.75;;;8.55;49.33
35676;BME280;21790;42.668;23.298;2023-12-29T03:29:20;95253.25;;;8.56;48.56
35676;BME280;21790;42.668;23.298;2023-12-29T03:31:46;95263.56;;;8.80;48.22
35676;BME280;21790;42.668;23.298;2023-12-29T03:34:12;95257.19;;;8.55;48.58
35676;BME280;21790;42.668;23.298;2023-12-29T03:36:38;95254.06;;;8.69;48.01
35676;BME280;21790;42.668;23.298;2023-12-29T03:39:06;95250.53;;;8.68;48.88
35676;BME280;21790;42.668;23.298;2023-12-29T03:41:32;95253.78;;;8.51;48.74
35676;BME280;21790;42.668;23.298;2023-12-29T03:43:58;95243.38;;;8.71;48.22
35676;BME280;21790;42.668;23.298;2023-12-29T03:46:25;95253.97;;;8.72;48.52
35676;BME280;21790;42.668;23.298;2023-12-29T03:48:51;95265.75;;;8.44;48.91
35676;BME280;21790;42.668;23.298;2023-12-29T03:51:20;95258.66;;;8.59;48.70
35676;BME280;21790;42.668;23.298;2023-12-29T03:53:46;95264.84;;;8.63;47.65
35676;BME280;21790;42.668;23.298;2023-12-29T03:56:16;95263.75;;;8.73;47.61
35676;BME280;21790;42.668;23.298;2023-12-29T03:58:43;95267.81;;;8.56;47.72
35676;BME280;21790;42.668;23.298;2023-12-29T04:01:11;95271.00;;;8.67;47.28
35676;BME280;21790;42.668;23.298;2023-12-29T04:03:38;95265.19;;;8.65;47.89
35676;BME280;21790;42.668;23.298;2023-12-29T04:06:05;95260.75;;;8.55;48.28
35676;BME280;21790;42.668;23.298;2023-12-29T04:08:35;95269.81;;;8.68;48.07
35676;BME280;21790;42.668;23.298;2023-12-29T04:11:05;95259.44;;;9.01;46.80
35676;BME280;21790;42.668;23.298;2023-12-29T04:13:33;95264.09;;;9.17;46.39
35676;BME280;21790;42.668;23.298;2023-12-29T04:16:00;95266.69;;;8.82;47.24
35676;BME280;21790;42.668;23.298;2023-12-29T04:18:25;95263.16;;;8.82;46.98
35676;BME280;21790;42.668;23.298;2023-12-29T04:20:51;95263.00;;;8.44;47.77
35676;BME280;21790;42.668;23.298;2023-12-29T04:23:16;95274.34;;;8.46;48.22
35676;BME280;21790;42.668;23.298;2023-12-29T04:25:42;95261.31;;;8.63;47.83
35676;BME280;21790;42.668;23.298;2023-12-29T04:28:08;95258.50;;;8.50;47.61
35676;BME280;21790;42.668;23.298;2023-12-29T04:30:35;95256.19;;;8.49;48.06
35676;BME280;21790;42.668;23.298;2023-12-29T04:33:01;95260.22;;;8.73;47.51
35676;BME280;21790;42.668;23.298;2023-12-29T04:35:28;95261.97;;;8.96;46.80
35676;BME280;21790;42.668;23.298;2023-12-29T04:37:54;95262.03;;;8.79;46.93
35676;BME280;21790;42.668;23.298;2023-12-29T04:40:20;95257.44;;;8.60;47.49
35676;BME280;21790;42.668;23.298;2023-12-29T04:42:45;95256.84;;;8.81;47.27
35676;BME280;21790;42.668;23.298;2023-12-29T04:45:11;95260.31;;;8.98;46.65
35676;BME280;21790;42.668;23.298;2023-12-29T04:47:37;95268.25;;;8.96;46.05
35676;BME280;21790;42.668;23.298;2023-12-29T04:50:03;95270.50;;;8.72;46.74
35676;BME280;21790;42.668;23.298;2023-12-29T04:52:28;95273.97;;;8.60;46.53
35676;BME280;21790;42.668;23.298;2023-12-29T04:54:58;95259.13;;;8.42;47.35
35676;BME280;21790;42.668;23.298;2023-12-29T04:57:25;95264.31;;;8.23;47.52
35676;BME280;21790;42.668;23.298;2023-12-29T04:59:52;95256.13;;;8.20;47.78
35676;BME280;21790;42.668;23.298;2023-12-29T05:02:19;95245.63;;;8.31;47.38
35676;BME280;21790;42.668;23.298;2023-12-29T05:04:45;95247.44;;;8.21;47.84
35676;BME280;21790;42.668;23.298;2023-12-29T05:07:11;95239.06;;;8.25;47.84
35676;BME280;21790;42.668;23.298;2023-12-29T05:09:37;95253.56;;;8.13;48.17
35676;BME280;21790;42.668;23.298;2023-12-29T05:12:03;95249.94;;;7.99;48.64
35676;BME280;21790;42.668;23.298;2023-12-29T05:14:29;95241.03;;;8.24;48.42
35676;BME280;21790;42.668;23.298;2023-12-29T05:16:55;95248.22;;;8.22;48.29
35676;BME280;21790;42.668;23.298;2023-12-29T05:19:20;95235.22;;;8.38;47.66
35676;BME280;21790;42.668;23.298;2023-12-29T05:21:47;95228.03;;;8.41;46.94
35676;BME280;21790;42.668;23.298;2023-12-29T05:24:16;95241.78;;;8.57;46.52
35676;BME280;21790;42.668;23.298;2023-12-29T05:26:44;95245.22;;;8.32;46.56
35676;BME280;21790;42.668;23.298;2023-12-29T05:29:11;95235.66;;;8.21;47.19
35676;BME280;21790;42.668;23.298;2023-12-29T05:31:36;95242.88;;;8.31;47.25
35676;BME280;21790;42.668;23.298;2023-12-29T05:34:02;95247.59;;;8.30;47.19
35676;BME280;21790;42.668;23.298;2023-12-29T05:36:29;95242.41;;;8.49;46.71
35676;BME280;21790;42.668;23.298;2023-12-29T05:38:55;95253.28;;;8.68;46.64
35676;BME280;21790;42.668;23.298;2023-12-29T05:41:21;95256.25;;;8.61;46.94
35676;BME280;21790;42.668;23.298;2023-12-29T05:43:46;95259.53;;;8.56;46.89
35676;BME280;21790;42.668;23.298;2023-12-29T05:46:12;95268.47;;;8.60;46.51
35676;BME280;21790;42.668;23.298;2023-12-29T05:48:39;95260.38;;;8.53;46.54
35676;BME280;21790;42.668;23.298;2023-12-29T05:51:13;95263.06;;;8.40;47.92
35676;BME280;21790;42.668;23.298;2023-12-29T05:53:40;95263.84;;;8.25;48.66
35676;BME280;21790;42.668;23.298;2023-12-29T05:56:08;95254.75;;;8.28;48.44
35676;BME280;21790;42.668;23.298;2023-12-29T05:58:36;95261.56;;;8.39;48.18
35676;BME280;21790;42.668;23.298;2023-12-29T06:01:04;95264.06;;;8.18;49.06
35676;BME280;21790;42.668;23.298;2023-12-29T06:03:32;95251.03;;;8.51;48.47
35676;BME280;21790;42.668;23.298;2023-12-29T06:06:00;95244.38;;;8.48;48.01
35676;BME280;21790;42.668;23.298;2023-12-29T06:08:27;95242.53;;;8.29;48.07
35676;BME280;21790;42.668;23.298;2023-12-29T06:10:54;95238.56;;;8.30;48.90
35676;BME280;21790;42.668;23.298;2023-12-29T06:13:22;95240.50;;;8.46;47.72
35676;BME280;21790;42.668;23.298;2023-12-29T06:15:50;95241.06;;;9.11;58.45
35676;BME280;21790;42.668;23.298;2023-12-29T06:18:16;95240.31;;;9.61;49.78
35676;BME280;21790;42.668;23.298;2023-12-29T06:20:42;95240.09;;;9.81;50.36
35676;BME280;21790;42.668;23.298;2023-12-29T06:23:07;95243.75;;;10.37;47.72
35676;BME280;21790;42.668;23.298;2023-12-29T06:25:33;95246.13;;;10.14;43.11
35676;BME280;21790;42.668;23.298;2023-12-29T06:27:59;95258.06;;;9.73;44.52
35676;BME280;21790;42.668;23.298;2023-12-29T06:30:25;95251.44;;;9.83;44.35
35676;BME280;21790;42.668;23.298;2023-12-29T06:32:51;95254.34;;;9.54;44.69
35676;BME280;21790;42.668;23.298;2023-12-29T06:35:17;95257.75;;;9.58;44.98
35676;BME280;21790;42.668;23.298;2023-12-29T06:37:42;95262.72;;;9.50;45.42
35676;BME280;21790;42.668;23.298;2023-12-29T06:40:08;95265.03;;;9.27;45.86
35676;BME280;21790;42.668;23.298;2023-12-29T06:42:34;95258.28;;;9.28;46.34
35676;BME280;21790;42.668;23.298;2023-12-29T06:45:00;95246.91;;;9.38;45.79
35676;BME280;21790;42.668;23.298;2023-12-29T06:47:25;95251.00;;;9.34;46.40
35676;BME280;21790;42.668;23.298;2023-12-29T06:49:55;95260.94;;;9.31;46.62
35676;BME280;21790;42.668;23.298;2023-12-29T06:52:23;95253.88;;;9.30;46.62
35676;BME280;21790;42.668;23.298;2023-12-29T06:54:54;95254.75;;;9.90;45.97
35676;BME280;21790;42.668;23.298;2023-12-29T06:57:24;95252.19;;;10.08;45.52
35676;BME280;21790;42.668;23.298;2023-12-29T06:59:51;95255.50;;;10.29;44.67
35676;BME280;21790;42.668;23.298;2023-12-29T07:02:19;95265.22;;;10.68;44.12
35676;BME280;21790;42.668;23.298;2023-12-29T07:04:46;95265.84;;;11.15;43.23
35676;BME280;21790;42.668;23.298;2023-12-29T07:07:13;95263.88;;;11.47;42.12
35676;BME280;21790;42.668;23.298;2023-12-29T07:09:41;95256.00;;;12.07;40.98
35676;BME280;21790;42.668;23.298;2023-12-29T07:12:10;95256.88;;;12.62;39.85
35676;BME280;21790;42.668;23.298;2023-12-29T07:14:41;95255.94;;;13.11;39.49
35676;BME280;21790;42.668;23.298;2023-12-29T07:17:07;95247.72;;;13.53;38.46
35676;BME280;21790;42.668;23.298;2023-12-29T07:19:34;95249.41;;;13.92;37.90
35676;BME280;21790;42.668;23.298;2023-12-29T07:22:14;95252.91;;;14.58;44.57
35676;BME280;21790;42.668;23.298;2023-12-29T07:24:42;95236.22;;;14.97;36.53
35676;BME280;21790;42.668;23.298;2023-12-29T07:27:08;95242.63;;;15.27;35.68
35676;BME280;21790;42.668;23.298;2023-12-29T07:29:35;95238.19;;;15.20;35.37
35676;BME280;21790;42.668;23.298;2023-12-29T07:32:01;95226.28;;;14.67;37.42
35676;BME280;21790;42.668;23.298;2023-12-29T07:34:27;95227.63;;;14.00;37.13
35676;BME280;21790;42.668;23.298;2023-12-29T07:36:57;95233.34;;;13.63;37.76
35676;BME280;21790;42.668;23.298;2023-12-29T07:39:26;95221.41;;;13.21;38.59
35676;BME280;21790;42.668;23.298;2023-12-29T07:41:52;95228.53;;;12.58;39.82
35676;BME280;21790;42.668;23.298;2023-12-29T07:44:19;95225.59;;;12.52;40.08
35676;BME280;21790;42.668;23.298;2023-12-29T07:46:49;95230.06;;;12.68;40.28
35676;BME280;21790;42.668;23.298;2023-12-29T07:49:15;95238.69;;;12.61;40.28
35676;BME280;21790;42.668;23.298;2023-12-29T07:51:48;95239.91;;;12.60;40.28
35676;BME280;21790;42.668;23.298;2023-12-29T07:54:13;95243.91;;;12.50;40.66
35676;BME280;21790;42.668;23.298;2023-12-29T07:56:40;95247.94;;;12.49;40.45
35676;BME280;21790;42.668;23.298;2023-12-29T07:59:06;95238.97;;;12.36;41.03
35676;BME280;21790;42.668;23.298;2023-12-29T08:01:32;95247.34;;;11.96;41.82
35676;BME280;21790;42.668;23.298;2023-12-29T08:03:57;95248.88;;;11.88;41.99
35676;BME280;21790;42.668;23.298;2023-12-29T08:06:23;95250.25;;;11.83;42.36
35676;BME280;21790;42.668;23.298;2023-12-29T08:08:51;95244.75;;;12.01;42.21
35676;BME280;21790;42.668;23.298;2023-12-29T08:11:17;95242.47;;;12.09;42.01
35676;BME280;21790;42.668;23.298;2023-12-29T08:13:44;95249.72;;;12.15;41.94
35676;BME280;21790;42.668;23.298;2023-12-29T08:16:13;95248.06;;;12.36;41.79
35676;BME280;21790;42.668;23.298;2023-12-29T08:18:43;95250.34;;;12.29;41.77
35676;BME280;21790;42.668;23.298;2023-12-29T08:21:16;95253.72;;;12.24;41.82
35676;BME280;21790;42.668;23.298;2023-12-29T08:23:43;95250.34;;;12.10;41.99
35676;BME280;21790;42.668;23.298;2023-12-29T08:26:09;95239.25;;;12.20;41.90
35676;BME280;21790;42.668;23.298;2023-12-29T08:28:35;95242.94;;;12.16;42.00
35676;BME280;21790;42.668;23.298;2023-12-29T08:31:02;95246.81;;;12.19;42.07
35676;BME280;21790;42.668;23.298;2023-12-29T08:33:28;95247.41;;;12.23;42.00
35676;BME280;21790;42.668;23.298;2023-12-29T08:35:54;95248.81;;;12.28;42.13
35676;BME280;21790;42.668;23.298;2023-12-29T08:38:26;95252.72;;;12.48;41.72
35676;BME280;21790;42.668;23.298;2023-12-29T08:40:53;95251.75;;;12.33;41.70
35676;BME280;21790;42.668;23.298;2023-12-29T08:43:23;95246.06;;;12.37;41.40
35676;BME280;21790;42.668;23.298;2023-12-29T08:45:49;95256.94;;;12.22;41.01
35676;BME280;21790;42.668;23.298;2023-12-29T08:48:16;95258.94;;;12.12;41.25
35676;BME280;21790;42.668;23.298;2023-12-29T08:50:45;95256.22;;;12.22;41.02
35676;BME280;21790;42.668;23.298;2023-12-29T08:53:12;95258.38;;;12.45;40.42
35676;BME280;21790;42.668;23.298;2023-12-29T08:55:42;95245.53;;;12.11;41.35
35676;BME280;21790;42.668;23.298;2023-12-29T08:58:11;95261.28;;;12.23;41.49
35676;BME280;21790;42.668;23.298;2023-12-29T09:00:39;95257.00;;;12.49;41.01
35676;BME280;21790;42.668;23.298;2023-12-29T09:03:05;95246.69;;;12.77;41.23
35676;BME280;21790;42.668;23.298;2023-12-29T09:05:31;95246.09;;;12.91;41.70
35676;BME280;21790;42.668;23.298;2023-12-29T09:07:57;95260.28;;;13.12;41.41
35676;BME280;21790;42.668;23.298;2023-12-29T09:10:23;95248.09;;;13.18;42.20
35676;BME280;21790;42.668;23.298;2023-12-29T09:12:49;95253.53;;;13.64;41.01
35676;BME280;21790;42.668;23.298;2023-12-29T09:15:15;95238.72;;;14.00;40.77
35676;BME280;21790;42.668;23.298;2023-12-29T09:17:42;95250.50;;;14.18;40.61
35676;BME280;21790;42.668;23.298;2023-12-29T09:20:08;95237.63;;;14.39;39.85
35676;BME280;21790;42.668;23.298;2023-12-29T09:22:34;95238.34;;;14.63;39.40
35676;BME280;21790;42.668;23.298;2023-12-29T09:25:00;95235.00;;;14.59;39.17
35676;BME280;21790;42.668;23.298;2023-12-29T09:27:25;95227.88;;;14.58;39.42
35676;BME280;21790;42.668;23.298;2023-12-29T09:29:51;95215.28;;;14.72;39.64
35676;BME280;21790;42.668;23.298;2023-12-29T09:32:17;95203.72;;;15.03;38.87
35676;BME280;21790;42.668;23.298;2023-12-29T09:41:42;95211.69;;;15.83;38.08
35676;BME280;21790;42.668;23.298;2023-12-29T09:44:14;95206.09;;;15.83;37.47
35676;BME280;21790;42.668;23.298;2023-12-29T09:46:41;95197.34;;;15.90;37.83
35676;BME280;21790;42.668;23.298;2023-12-29T09:49:08;95202.34;;;16.21;37.91
35676;BME280;21790;42.668;23.298;2023-12-29T09:51:37;95205.25;;;16.47;37.18
35676;BME280;21790;42.668;23.298;2023-12-29T09:54:03;95184.66;;;16.65;37.25
35676;BME280;21790;42.668;23.298;2023-12-29T09:56:30;95199.94;;;16.90;36.96
35676;BME280;21790;42.668;23.298;2023-12-29T09:58:55;95194.97;;;16.99;36.20
35676;BME280;21790;42.668;23.298;2023-12-29T10:01:21;95190.81;;;17.15;35.79
35676;BME280;21790;42.668;23.298;2023-12-29T10:03:47;95189.19;;;17.29;35.50
35676;BME280;21790;42.668;23.298;2023-12-29T10:06:14;95176.19;;;17.26;35.58
35676;BME280;21790;42.668;23.298;2023-12-29T10:08:43;95166.38;;;17.36;35.39
35676;BME280;21790;42.668;23.298;2023-12-29T10:11:10;95171.19;;;17.61;35.42
35676;BME280;21790;42.668;23.298;2023-12-29T10:13:38;95164.88;;;17.66;35.06
35676;BME280;21790;42.668;23.298;2023-12-29T10:19:23;95151.88;;;17.94;34.97
35676;BME280;21790;42.668;23.298;2023-12-29T10:25:13;95153.00;;;18.14;33.92
35676;BME280;21790;42.668;23.298;2023-12-29T10:27:41;95143.34;;;18.15;33.84
35676;BME280;21790;42.668;23.298;2023-12-29T10:30:10;95132.16;;;18.15;34.25
35676;BME280;21790;42.668;23.298;2023-12-29T10:32:37;95130.66;;;18.25;33.61
35676;BME280;21790;42.668;23.298;2023-12-29T10:35:10;95120.84;;;18.46;33.44
35676;BME280;21790;42.668;23.298;2023-12-29T10:37:37;95110.13;;;18.39;33.68
35676;BME280;21790;42.668;23.298;2023-12-29T10:40:18;95110.03;;;18.76;33.01
35676;BME280;21790;42.668;23.298;2023-12-29T10:42:54;95102.38;;;18.76;33.15
35676;BME280;21790;42.668;23.298;2023-12-29T10:45:21;95108.75;;;18.77;33.38
35676;BME280;21790;42.668;23.298;2023-12-29T10:47:51;95102.16;;;18.86;33.17
35676;BME280;21790;42.668;23.298;2023-12-29T10:50:16;95097.34;;;19.03;34.20
35676;BME280;21790;42.668;23.298;2023-12-29T10:52:42;95103.47;;;19.18;32.53
35676;BME280;21790;42.668;23.298;2023-12-29T10:55:10;95088.44;;;19.15;32.59
35676;BME280;21790;42.668;23.298;2023-12-29T10:57:39;95088.19;;;19.25;32.49
35676;BME280;21790;42.668;23.298;2023-12-29T11:00:16;95078.00;;;19.27;31.95
35676;BME280;21790;42.668;23.298;2023-12-29T11:02:43;95075.69;;;19.42;32.33
35676;BME280;21790;42.668;23.298;2023-12-29T11:05:24;95062.25;;;19.46;31.96
35676;BME280;21790;42.668;23.298;2023-12-29T11:07:51;95069.09;;;19.34;32.18
35676;BME280;21790;42.668;23.298;2023-12-29T11:10:23;95067.56;;;19.50;32.32
35676;BME280;21790;42.668;23.298;2023-12-29T11:12:49;95062.72;;;19.50;32.05
35676;BME280;21790;42.668;23.298;2023-12-29T11:15:28;95060.19;;;19.63;31.63
35676;BME280;21790;42.668;23.298;2023-12-29T11:17:56;95062.72;;;19.50;31.63
35676;BME280;21790;42.668;23.298;2023-12-29T11:20:22;95056.34;;;19.55;31.94
35676;BME280;21790;42.668;23.298;2023-12-29T11:22:51;95056.34;;;19.67;31.79
35676;BME280;21790;42.668;23.298;2023-12-29T11:25:19;95058.88;;;19.64;31.79
35676;BME280;21790;42.668;23.298;2023-12-29T11:27:48;95044.38;;;19.55;31.49
35676;BME280;21790;42.668;23.298;2023-12-29T11:30:18;95059.66;;;19.65;31.25
35676;BME280;21790;42.668;23.298;2023-12-29T11:33:12;95052.50;;;19.70;31.22
35676;BME280;21790;42.668;23.298;2023-12-29T11:35:50;95051.50;;;19.61;31.64
35676;BME280;21790;42.668;23.298;2023-12-29T11:43:35;95049.47;;;19.56;31.17
35676;BME280;21790;42.668;23.298;2023-12-29T11:46:02;95042.06;;;19.37;31.38
35676;BME280;21790;42.668;23.298;2023-12-29T11:48:57;95039.25;;;19.42;31.52
35676;BME280;21790;42.668;23.298;2023-12-29T11:51:28;95032.91;;;19.36;31.53
35676;BME280;21790;42.668;23.298;2023-12-29T11:53:54;95029.59;;;19.27;31.67
35676;BME280;21790;42.668;23.298;2023-12-29T11:56:20;95032.66;;;19.17;32.03
35676;BME280;21790;42.668;23.298;2023-12-29T11:58:46;95031.63;;;19.26;32.07
35676;BME280;21790;42.668;23.298;2023-12-29T12:01:12;95030.13;;;19.25;31.87
35676;BME280;21790;42.668;23.298;2023-12-29T12:03:37;95029.84;;;19.29;32.15
35676;BME280;21790;42.668;23.298;2023-12-29T12:06:03;95014.31;;;19.33;31.97
35676;BME280;21790;42.668;23.298;2023-12-29T12:08:36;95017.63;;;19.48;31.63
35676;BME280;21790;42.668;23.298;2023-12-29T12:13:53;95020.69;;;19.45;31.59
35676;BME280;21790;42.668;23.298;2023-12-29T12:19:13;95015.56;;;19.43;31.96
35676;BME280;21790;42.668;23.298;2023-12-29T12:21:38;95008.22;;;18.96;32.61
35676;BME280;21790;42.668;23.298;2023-12-29T12:24:05;95021.19;;;19.21;32.35
35676;BME280;21790;42.668;23.298;2023-12-29T12:26:32;95011.28;;;19.20;31.99
35676;BME280;21790;42.668;23.298;2023-12-29T12:28:58;95016.63;;;19.23;32.15
35676;BME280;21790;42.668;23.298;2023-12-29T12:31:24;95012.25;;;19.39;32.24
35676;BME280;21790;42.668;23.298;2023-12-29T12:33:58;95021.19;;;19.54;31.88
35676;BME280;21790;42.668;23.298;2023-12-29T12:36:27;95016.84;;;19.53;31.94
35676;BME280;21790;42.668;23.298;2023-12-29T12:38:54;95021.19;;;19.32;31.81
35676;BME280;21790;42.668;23.298;2023-12-29T12:41:24;95015.84;;;19.45;32.30
35676;BME280;21790;42.668;23.298;2023-12-29T12:44:02;95014.25;;;19.72;32.37
35676;BME280;21790;42.668;23.298;2023-12-29T12:46:34;95020.88;;;19.75;31.69
35676;BME280;21790;42.668;23.298;2023-12-29T12:49:01;95020.16;;;19.41;32.19
35676;BME280;21790;42.668;23.298;2023-12-29T12:51:29;95023.22;;;19.32;32.39
35676;BME280;21790;42.668;23.298;2023-12-29T12:53:56;95024.00;;;19.54;32.22
35676;BME280;21790;42.668;23.298;2023-12-29T12:56:23;95016.84;;;19.53;32.34
35676;BME280;21790;42.668;23.298;2023-12-29T12:58:56;95013.31;;;19.42;32.44
35676;BME280;21790;42.668;23.298;2023-12-29T13:01:23;95019.91;;;19.28;32.42
35676;BME280;21790;42.668;23.298;2023-12-29T13:03:50;95011.50;;;19.39;32.52
35676;BME280;21790;42.668;23.298;2023-12-29T13:06:16;95019.41;;;19.62;32.40
35676;BME280;21790;42.668;23.298;2023-12-29T13:08:42;95007.63;;;19.70;31.90
35676;BME280;21790;42.668;23.298;2023-12-29T13:11:12;95008.41;;;19.70;32.20
35676;BME280;21790;42.668;23.298;2023-12-29T13:13:40;95017.31;;;19.80;31.80
35676;BME280;21790;42.668;23.298;2023-12-29T13:16:08;95018.81;;;19.86;31.75
35676;BME280;21790;42.668;23.298;2023-12-29T13:18:34;95017.84;;;19.73;31.97
35676;BME280;21790;42.668;23.298;2023-12-29T13:21:01;95004.81;;;19.75;31.76
35676;BME280;21790;42.668;23.298;2023-12-29T13:23:28;95006.81;;;19.91;31.75
35676;BME280;21790;42.668;23.298;2023-12-29T13:25:54;94994.94;;;19.63;31.88